Data for 05/14/2005

Time Sea-Level Adjusted Pressure Absolute Pressure Temperature Relative Humidity Dew Point   
(mb) (inHg) (mb) (inHg) (C) (F) (%) (C) (F)
00:05 1022 30.18 851 25.13 9.8 49.6 71 4.9 40.8
00:10 1022 30.18 851 25.13 9.7 49.4 72 5 41
00:15 1022 30.18 851 25.13 9.7 49.4 72 4.9 40.9
00:20 1022 30.18 851 25.13 9.6 49.2 72 4.8 40.6
00:25 1022 30.18 851 25.13 9.5 49.1 75 5.2 41.4
00:30 1022 30.18 851 25.13 9.4 49 73 4.9 40.9
00:35 1022 30.18 851 25.13 9.3 48.8 73 4.7 40.5
00:40 1022 30.18 851 25.13 9.3 48.7 73 4.8 40.6
00:45 1022 30.18 851 25.13 9.3 48.7 72 4.6 40.3
00:50 1022 30.18 851 25.13 9.4 48.9 71 4.4 40
00:55 1022 30.18 851 25.13 9.5 49.1 71 4.5 40.1
01:00 1022 30.18 851 25.13 9.4 49 72 4.7 40.5
01:05 1022 30.18 851 25.13 9.3 48.8 73 4.8 40.6
01:10 1022 30.18 851 25.13 9.2 48.6 73 4.5 40.2
01:15 1022 30.18 851 25.13 9.2 48.6 73 4.6 40.3
01:20 1022 30.18 851 25.13 9 48.2 73 4.5 40.1
01:25 1022 30.18 851 25.13 9 48.1 75 4.7 40.5
01:30 1022 30.18 851 25.13 8.8 47.9 74 4.6 40.2
01:35 1022 30.18 851 25.13 8.7 47.7 76 4.7 40.4
01:40 1022 30.18 851 25.13 8.7 47.6 74 4.4 39.9
01:45 1022 30.18 851 25.13 8.7 47.6 76 4.8 40.6
01:50 1022 30.18 851 25.13 8.8 47.8 73 4.3 39.8
01:55 1022 30.18 851 25.13 9 48.1 73 4.4 40
02:00 1022 30.18 851 25.13 8.8 47.9 74 4.5 40
02:05 1022 30.18 851 25.13 8.5 47.4 75 4.5 40
02:10 1022 30.18 851 25.13 8.4 47.1 77 4.5 40.1
02:15 1022 30.18 851 25.13 8.4 47.2 75 4.2 39.6
02:20 1022 30.18 851 25.13 8.6 47.5 74 4.2 39.5
02:25 1022 30.18 851 25.13 8.8 47.8 73 4.3 39.7
02:30 1022 30.18 851 25.13 8.3 46.9 76 4.2 39.6
02:35 1022 30.18 851 25.13 8 46.3 77 4.1 39.4
02:40 1022 30.18 851 25.13 7.7 45.9 78 4.2 39.5
02:45 1022 30.18 851 25.13 7.6 45.7 77 3.9 39
02:50 1022 30.18 851 25.13 7.6 45.8 78 4.1 39.3
02:55 1022 30.18 851 25.13 7.5 45.5 78 4 39.1
03:00 1022 30.18 851 25.13 7.5 45.6 77 3.8 38.8
03:05 1022 30.18 851 25.13 7.5 45.6 78 3.9 39.1
03:10 1022 30.18 851 25.13 7.3 45.2 78 3.8 38.9
03:15 1022 30.18 851 25.13 7.1 44.7 79 3.7 38.6
03:20 1022 30.18 851 25.13 6.8 44.3 81 3.7 38.7
03:25 1022 30.18 851 25.13 6.5 43.6 82 3.5 38.4
03:30 1022 30.18 851 25.13 6.5 43.7 80 3.3 37.9
03:35 1022 30.18 851 25.13 7.1 44.8 77 3.3 37.9
03:40 1022 30.18 851 25.13 7.4 45.3 76 3.5 38.3
03:45 1022 30.18 851 25.13 7.2 45 77 3.5 38.3
03:50 1022 30.18 851 25.13 7 44.7 79 3.6 38.4
03:55 1022 30.18 851 25.13 6.8 44.2 79 3.4 38.2
04:00 1022 30.18 851 25.13 6.5 43.7 80 3.3 37.9
04:05 1022 30.18 851 25.13 6.7 44 78 3.1 37.5
04:10 1022 30.18 851 25.13 6.9 44.4 78 3.3 38
04:15 1022 30.18 851 25.13 6.8 44.3 78 3.4 38.1
04:20 1022 30.18 851 25.13 6.9 44.4 78 3.4 38.2
04:25 1022 30.18 851 25.13 6.9 44.4 78 3.4 38.1
04:30 1022 30.18 851 25.13 6.9 44.4 79 3.4 38.2
04:35 1022 30.18 851 25.13 6.7 44.1 79 3.3 37.9
04:40 1022 30.18 851 25.13 6.6 43.8 79 3.3 37.9
04:45 1022 30.18 851 25.13 6.4 43.6 80 3.3 37.9
04:50 1022 30.18 851 25.13 6.2 43.2 81 3.2 37.8
04:55 1022 30.18 851 25.13 5.8 42.5 82 3 37.4
05:00 1022 30.18 851 25.13 5.8 42.4 81 2.8 37
05:05 1022 30.18 851 25.13 6 42.8 80 2.8 37.1
05:10 1022 30.18 851 25.13 6.2 43.1 80 3 37.3
05:15 1022 30.18 851 25.13 6.1 42.9 80 2.9 37.3
05:20 1022 30.18 851 25.13 5.8 42.5 81 2.9 37.2
05:25 1022 30.18 851 25.13 5.7 42.2 82 2.9 37.1
05:30 1022 30.18 851 25.13 5.8 42.4 82 2.9 37.2
05:35 1022 30.18 851 25.13 5.9 42.7 81 3 37.4
05:40 1022 30.18 851 25.13 6.1 42.9 80 2.9 37.3
05:45 1022 30.18 851 25.13 6.1 43 81 3 37.4
05:50 1022 30.18 851 25.13 6 42.7 81 2.9 37.3
05:55 1022 30.18 851 25.13 6 42.8 81 2.9 37.3
06:00 1022 30.18 851 25.13 6 42.9 80 2.9 37.1
06:05 1022 30.18 851 25.13 6.1 43 79 2.8 37
06:10 1022 30.18 851 25.13 6.3 43.4 78 2.8 37
06:15 1022 30.18 851 25.13 6.6 43.9 76 2.7 36.9
06:20 1022 30.18 851 25.13 6.9 44.4 74 2.6 36.7
06:25 1022 30.18 851 25.13 6.8 44.3 76 2.8 37.1
06:30 1022 30.18 851 25.13 6.3 43.3 77 2.6 36.7
06:35 1022 30.18 851 25.13 6.2 43.2 76 2.4 36.2
06:40 1022 30.18 851 25.13 6.6 43.8 76 2.6 36.6
06:45 1022 30.18 851 25.13 6.8 44.2 75 2.7 36.8
06:50 1022 30.18 851 25.13 6.9 44.4 74 2.7 36.8
06:55 1022 30.18 851 25.13 7 44.6 75 2.8 37.1
07:00 1022 30.18 851 25.13 7 44.5 75 2.9 37.2
07:05 1022 30.18 851 25.13 7.1 44.7 75 3 37.4
07:10 1022 30.18 851 25.13 6.9 44.3 77 3 37.5
07:15 1022 30.18 851 25.13 7 44.6 77 3.2 37.7
07:20 1022 30.18 851 25.13 7.2 44.9 76 3.2 37.7
07:25 1022 30.18 851 25.13 7.3 45.2 76 3.4 38.2
07:30 1022 30.18 851 25.13 7.4 45.3 75 3.3 38
07:35 1022 30.18 851 25.13 7.5 45.5 76 3.5 38.3
07:40 1022 30.18 851 25.13 7.6 45.7 75 3.5 38.3
07:45 1022 30.18 851 25.13 7.7 45.9 76 3.7 38.7
07:50 1022 30.18 851 25.13 8 46.5 75 3.8 38.8
07:55 1022 30.18 851 25.13 8.3 46.9 73 3.8 38.9
08:00 1022 30.18 851 25.13 8.5 47.3 74 4.1 39.3
08:05 1022 30.18 851 25.13 8.9 48 71 4 39.3
08:10 1022 30.18 851 25.13 9.4 48.8 71 4.4 40
08:15 1022 30.18 851 25.13 9.8 49.6 72 4.9 40.8
08:20 1022 30.18 851 25.13 9.8 49.7 71 4.7 40.5
08:25 1022 30.18 851 25.13 10.4 50.6 66 4.4 39.9
08:30 1022 30.18 851 25.13 10.7 51.2 68 5.1 41.1
08:35 1022 30.18 851 25.13 11.2 52.1 63 4.5 40.1
08:40 1022 30.18 851 25.13 11.3 52.3 59 3.6 38.4
08:45 1022 30.18 851 25.13 11.8 53.3 60 4.3 39.8
08:50 1022 30.18 851 25.13 11.9 53.4 59 4.3 39.7
08:55 1022 30.18 851 25.13 11.7 53 61 4.4 40
09:00 1022 30.18 851 25.13 12.1 53.8 59 4.4 39.9
09:05 1022 30.18 851 25.13 12.8 55 57 4.5 40.1
09:10 1022 30.18 851 25.13 13.2 55.7 56 4.7 40.5
09:15 1022 30.18 851 25.13 13.4 56 55 4.6 40.3
09:20 1022 30.18 851 25.13 13.7 56.7 55 4.9 40.9
09:25 1022 30.18 851 25.13 14 57.1 53 4.7 40.4
09:30 1022 30.18 851 25.13 14 57.2 53 4.5 40.1
09:35 1022 30.18 851 25.13 14 57.2 51 4.2 39.5
09:40 1022 30.18 851 25.13 14.3 57.7 51 4.4 39.9
09:45 1022 30.18 851 25.13 14.4 58 50 4.3 39.7
09:50 1022 30.18 851 25.13 14.6 58.2 50 4.4 40
09:55 1022 30.18 851 25.13 14.7 58.4 49 4.2 39.6
10:00 1022 30.18 851 25.13 14.8 58.7 49 4.3 39.8
10:05 1022 30.18 851 25.13 15.2 59.4 48 4.4 40
10:10 1022 30.18 851 25.13 15.2 59.3 48 4.4 39.8
10:15 1022 30.18 851 25.13 15.4 59.8 47 4.2 39.5
10:20 1021 30.15 851 25.13 15.4 59.7 48 4.5 40.1
10:25 1021 30.15 851 25.13 15.4 59.7 48 4.5 40.1
10:30 1021 30.15 851 25.13 15.8 60.5 47 4.5 40.2
10:35 1021 30.15 851 25.13 16.2 61.2 46 4.5 40.2
10:40 1021 30.15 850 25.1 16.2 61.1 48 5.4 41.7
10:45 1021 30.15 850 25.1 16.4 61.5 48 5.5 41.8
10:50 1021 30.15 850 25.1 16.9 62.5 45 5.1 41.2
10:55 1021 30.15 850 25.1 17 62.6 47 5.6 42
11:00 1021 30.15 850 25.1 17.1 62.8 45 5.2 41.3
11:05 1021 30.15 850 25.1 17.2 63 43 4.7 40.5
11:10 1021 30.15 850 25.1 17.4 63.3 43 4.8 40.7
11:15 1021 30.15 850 25.1 17.7 63.9 45 5.7 42.3
11:20 1021 30.15 850 25.1 17.4 63.3 40 3.7 38.7
11:25 1021 30.15 850 25.1 16.9 62.3 43 4.2 39.6
11:30 1021 30.15 850 25.1 17.7 63.9 40 4.1 39.5
11:35 1021 30.15 850 25.1 18 64.4 40 4.3 39.7
11:40 1021 30.15 850 25.1 18.6 65.5 40 4.9 40.8
11:45 1021 30.15 850 25.1 18.8 65.9 41 5.3 41.6
11:50 1021 30.15 850 25.1 18.5 65.3 41 5.1 41.1
11:55 1021 30.15 850 25.1 18.9 66 39 4.7 40.4
12:00 1021 30.15 850 25.1 17.6 63.7 42 4.8 40.7
12:05 1021 30.15 850 25.1 17.3 63.1 37 2.7 36.8
12:10 1021 30.15 850 25.1 17.6 63.8 37 2.9 37.2
12:15 1021 30.15 850 25.1 18.8 65.9 39 4.7 40.4
12:20 1021 30.15 850 25.1 19.1 66.4 35 3.5 38.4
12:25 1021 30.15 850 25.1 18.8 65.8 39 4.7 40.4
12:30 1021 30.15 850 25.1 19 66.3 35 3.4 38.1
12:35 1021 30.15 850 25.1 19.3 66.7 37 4.4 39.9
12:40 1020 30.12 850 25.1 19.5 67.2 34 3.5 38.3
12:45 1020 30.12 850 25.1 20.6 69 31 3 37.4
12:50 1020 30.12 850 25.1 20.8 69.4 32 3.7 38.6
12:55 1020 30.12 849 25.07 21.2 70.2 29 2.6 36.6
13:00 1020 30.12 849 25.07 21.3 70.4 31 3.8 38.8
13:05 1020 30.12 849 25.07 21.3 70.3 31 3.7 38.6
13:10 1020 30.12 849 25.07 21.5 70.6 29 3.1 37.5
13:15 1020 30.12 849 25.07 21.2 70.2 31 3.8 38.8
13:20 1020 30.12 849 25.07 21.1 70 30 3.1 37.6
13:25 1020 30.12 849 25.07 21.1 70 29 2.6 36.7
13:30 1020 30.12 849 25.07 21.5 70.7 31 3.7 38.6
13:35 1020 30.12 849 25.07 21 69.8 29 2.6 36.7
13:40 1020 30.12 849 25.07 20.6 69 31 2.9 37.1
13:45 1020 30.12 849 25.07 20.6 69.2 27 1.2 34.1
13:50 1020 30.12 849 25.07 21.9 71.5 28 2.7 36.9
13:55 1020 30.12 849 25.07 22 71.6 27 2.4 36.2
14:00 1020 30.12 849 25.07 22.1 71.8 26 1.7 35
14:05 1020 30.12 849 25.07 22.2 71.9 25 1.6 34.9
14:10 1020 30.12 849 25.07 22.1 71.8 24 0.9 33.6
14:15 1020 30.12 849 25.07 22.4 72.4 26 1.9 35.5
14:20 1020 30.12 849 25.07 22.2 72 26 2.2 36
14:25 1020 30.12 849 25.07 21.4 70.4 22 -0.9 30.4
14:30 1020 30.12 849 25.07 21.8 71.3 23 0 32
14:35 1020 30.12 849 25.07 22.5 72.4 24 1.1 33.9
14:40 1020 30.12 849 25.07 21 69.7 26 0.9 33.6
14:45 1019 30.09 849 25.07 20.8 69.4 24 -0.2 31.7
14:50 1019 30.09 849 25.07 21.3 70.4 21 -1.6 29.1
14:55 1019 30.09 849 25.07 21.7 71.1 20 -2.2 28.1
15:00 1019 30.09 849 25.07 20.9 69.5 22 -1.3 29.7
15:05 1019 30.09 848 25.04 20.2 68.3 22 -1.9 28.5
15:10 1019 30.09 848 25.04 20.6 69 21 -2.6 27.3
15:15 1019 30.09 848 25.04 22 71.6 19 -2.5 27.4
15:20 1019 30.09 848 25.04 22.9 73.1 19 -1.5 29.3
15:25 1019 30.09 848 25.04 23 73.4 20 -1.2 29.9
15:30 1019 30.09 848 25.04 22.6 72.6 19 -2.2 28
15:35 1019 30.09 848 25.04 22.6 72.7 19 -1.9 28.6
15:40 1019 30.09 848 25.04 22.8 73 19 -1.8 28.7
15:45 1019 30.09 848 25.04 23.3 73.9 19 -1.1 30
15:50 1019 30.09 848 25.04 22.3 72.2 21 -0.6 30.9
15:55 1019 30.09 848 25.04 21.5 70.8 22 -1 30.2
16:00 1019 30.09 848 25.04 21.1 70 22 -1.2 29.8
16:05 1019 30.09 848 25.04 20.9 69.6 21 -1.8 28.8
16:10 1019 30.09 848 25.04 21.7 71.1 21 -1.6 29.2
16:15 1019 30.09 848 25.04 22.1 71.7 22 -0.6 31
16:20 1019 30.09 848 25.04 21.4 70.4 22 -0.8 30.6
16:25 1019 30.09 848 25.04 22.4 72.2 21 -0.8 30.6
16:30 1019 30.09 848 25.04 22.3 72.2 21 -1 30.1
16:35 1018 30.06 848 25.04 21.8 71.3 22 -0.9 30.4
16:40 1018 30.06 848 25.04 20.9 69.6 22 -1.2 29.8
16:45 1018 30.06 848 25.04 21 69.8 22 -1.3 29.7
16:50 1018 30.06 847 25.01 22.2 72 21 -0.7 30.8
16:55 1018 30.06 847 25.01 22.6 72.8 22 -0.2 31.6
17:00 1018 30.06 847 25.01 22 71.5 23 0 32.1
17:05 1018 30.06 847 25.01 21.8 71.2 21 -1 30.2
17:10 1018 30.06 847 25.01 21.8 71.3 22 -0.9 30.4
17:15 1018 30.06 847 25.01 21.5 70.6 22 -0.8 30.5
17:20 1018 30.06 847 25.01 21.5 70.7 22 -1 30.1
17:25 1018 30.06 847 25.01 21.3 70.4 23 -0.2 31.6
17:30 1018 30.06 847 25.01 21.7 71.1 21 -1.2 29.8
17:35 1018 30.06 847 25.01 21.4 70.5 23 -0.4 31.2
17:40 1018 30.06 847 25.01 21.1 70 23 -0.8 30.6
17:45 1018 30.06 847 25.01 21.4 70.4 22 -0.8 30.5
17:50 1018 30.06 847 25.01 21.1 70 24 -0 31.9
17:55 1018 30.06 847 25.01 21 69.8 23 -0.5 31
18:00 1018 30.06 847 25.01 20.9 69.7 22 -1.4 29.4
18:05 1018 30.06 847 25.01 20.1 68.1 23 -1.4 29.5
18:10 1018 30.06 847 25.01 19.7 67.5 24 -1.5 29.3
18:15 1018 30.06 847 25.01 20.1 68.2 23 -1.4 29.5
18:20 1018 30.06 847 25.01 20 68.1 23 -1.4 29.5
18:25 1018 30.06 847 25.01 19.8 67.6 24 -1.2 29.9
18:30 1018 30.06 847 25.01 19.6 67.3 23 -1.7 28.9
18:35 1018 30.06 847 25.01 19.3 66.8 24 -1.7 29
18:40 1018 30.06 847 25.01 19.4 67 23 -2.3 27.8
18:45 1018 30.06 847 25.01 19.4 66.9 23 -2 28.4
18:50 1018 30.06 847 25.01 19.6 67.2 23 -2 28.5
18:55 1018 30.06 847 25.01 19.8 67.6 23 -1.7 29
19:00 1018 30.06 847 25.01 19.6 67.4 24 -1.6 29.2
19:05 1018 30.06 847 25.01 19.3 66.7 45 7.3 45.2
19:10 1018 30.06 847 25.01 18.3 65 50 7.9 46.3
19:15 1018 30.06 847 25.01 17.9 64.3 51 7.8 46.1
19:20 1018 30.06 847 25.01 17.7 63.8 52 7.8 46.1
19:25 1018 30.06 847 25.01 17.4 63.4 53 7.9 46.2
19:30 1018 30.06 847 25.01 17.3 63.1 53 7.9 46.1
19:35 1018 30.06 847 25.01 17.1 62.9 53 7.7 45.8
19:40 1018 30.06 847 25.01 16.9 62.5 54 7.7 45.9
19:45 1018 30.06 847 25.01 16.9 62.5 54 7.8 46
19:50 1018 30.06 847 25.01 16.9 62.3 55 7.9 46.3
19:55 1017 30.03 847 25.01 16.7 62.1 56 8.1 46.6
20:00 1017 30.03 847 25.01 16.5 61.7 56 7.9 46.2
20:05 1018 30.06 847 25.01 16.4 61.5 57 8 46.3
20:10 1018 30.06 847 25.01 16.2 61.1 58 7.9 46.3
20:15 1018 30.06 847 25.01 16 60.7 58 7.8 46.1
20:20 1018 30.06 847 25.01 15.8 60.4 59 8 46.3
20:25 1018 30.06 847 25.01 15.6 60.1 60 7.9 46.2
20:30 1018 30.06 847 25.01 15.5 59.9 60 7.9 46.2
20:35 1018 30.06 847 25.01 15.4 59.7 61 7.9 46.2
20:40 1018 30.06 847 25.01 15.2 59.4 61 7.9 46.2
20:45 1018 30.06 847 25.01 15.1 59.1 62 7.9 46.3
20:50 1018 30.06 847 25.01 14.9 58.9 63 7.9 46.2
20:55 1018 30.06 847 25.01 14.8 58.7 63 7.8 46.1
21:00 1018 30.06 847 25.01 14.7 58.5 63 7.8 46.1
21:05 1018 30.06 847 25.01 14.6 58.3 63 7.8 46
21:10 1018 30.06 847 25.01 14.6 58.2 64 7.9 46.2
21:15 1018 30.06 847 25.01 14.5 58 64 7.8 46.1
21:20 1018 30.06 847 25.01 14.4 57.9 65 7.9 46.2
21:25 1018 30.06 847 25.01 14.3 57.7 65 7.9 46.2
21:30 1018 30.06 847 25.01 14.2 57.6 65 7.9 46.1
21:35 1018 30.06 847 25.01 14.2 57.5 65 7.8 46
21:40 1018 30.06 847 25.01 14.2 57.5 66 7.9 46.1
21:45 1018 30.06 847 25.01 14 57.2 66 7.9 46.2
21:50 1018 30.06 847 25.01 13.9 57.1 67 7.9 46.2
21:55 1018 30.06 847 25.01 13.8 56.9 67 7.8 46.1
22:00 1018 30.06 847 25.01 13.8 56.8 67 7.8 46.1
22:05 1018 30.06 847 25.01 13.7 56.7 67 7.8 46
22:10 1018 30.06 847 25.01 13.7 56.7 67 7.8 46.1
22:15 1018 30.06 847 25.01 13.4 56.2 68 7.7 45.8
22:20 1018 30.06 847 25.01 13 55.4 71 8 46.3
22:25 1018 30.06 847 25.01 13.3 55.9 66 7 44.7
22:30 1018 30.06 847 25.01 13.2 55.8 64 6.6 43.9
22:35 1018 30.06 847 25.01 13.1 55.5 65 6.6 43.9
22:40 1018 30.06 847 25.01 13.1 55.5 65 6.6 44
22:45 1018 30.06 847 25.01 13 55.4 64 6.5 43.7
22:50 1018 30.06 847 25.01 12.9 55.2 64 6.3 43.3
22:55 1018 30.06 847 25.01 13 55.5 64 6.4 43.5
23:00 1018 30.06 847 25.01 13 55.4 66 6.8 44.3
23:05 1018 30.06 847 25.01 12.8 55 65 6.4 43.6
23:10 1018 30.06 847 25.01 12.8 55 67 6.7 44.1
23:15 1018 30.06 847 25.01 12.6 54.6 62 5.6 42.2
23:20 1018 30.06 847 25.01 12.5 54.4 60 5 41
23:25 1018 30.06 847 25.01 12.4 54.3 58 4.5 40.2
23:30 1018 30.06 847 25.01 12.3 54.1 59 4.5 40.1
23:35 1018 30.06 847 25.01 12.2 53.9 59 4.4 40
23:40 1018 30.06 847 25.01 12.2 53.9 60 4.6 40.3
23:45 1018 30.06 847 25.01 12.1 53.8 59 4.5 40
23:50 1018 30.06 847 25.01 11.9 53.5 61 4.7 40.4
23:55 1018 30.06 847 25.01 11.9 53.4 62 4.9 40.9
24:00 1018 30.06 847 25.01 11.7 53 64 5.2 41.4